sensor_id;sensor_type;location;lat;lon;timestamp;temperature;humidity
74666;DHT22;71408;50.106;8.694;2023-09-19T00:00:59;26.60;52.50
74666;DHT22;71408;50.106;8.694;2023-09-19T00:03:25;26.60;52.50
74666;DHT22;71408;50.106;8.694;2023-09-19T00:05:53;26.60;52.50
74666;DHT22;71408;50.106;8.694;2023-09-19T00:08:21;26.60;52.50
74666;DHT22;71408;50.106;8.694;2023-09-19T00:10:50;26.60;52.50
74666;DHT22;71408;50.106;8.694;2023-09-19T00:13:15;26.60;52.50
74666;DHT22;71408;50.106;8.694;2023-09-19T00:15:45;26.60;52.50
74666;DHT22;71408;50.106;8.694;2023-09-19T00:18:13;26.50;52.50
74666;DHT22;71408;50.106;8.694;2023-09-19T00:20:40;26.50;52.50
74666;DHT22;71408;50.106;8.694;2023-09-19T00:23:07;26.60;52.50
74666;DHT22;71408;50.106;8.694;2023-09-19T00:25:36;26.60;52.50
74666;DHT22;71408;50.106;8.694;2023-09-19T00:28:03;26.50;52.50
74666;DHT22;71408;50.106;8.694;2023-09-19T00:30:29;26.50;52.50
74666;DHT22;71408;50.106;8.694;2023-09-19T00:32:54;26.50;52.50
74666;DHT22;71408;50.106;8.694;2023-09-19T00:35:23;26.50;52.50
74666;DHT22;71408;50.106;8.694;2023-09-19T00:37:52;26.50;52.50
74666;DHT22;71408;50.106;8.694;2023-09-19T00:40:18;26.50;52.50
74666;DHT22;71408;50.106;8.694;2023-09-19T00:42:44;26.50;52.50
74666;DHT22;71408;50.106;8.694;2023-09-19T00:45:10;26.50;52.50
74666;DHT22;71408;50.106;8.694;2023-09-19T00:47:55;26.50;52.60
74666;DHT22;71408;50.106;8.694;2023-09-19T00:50:22;26.50;52.60
74666;DHT22;71408;50.106;8.694;2023-09-19T00:52:48;26.50;52.60
74666;DHT22;71408;50.106;8.694;2023-09-19T00:55:18;26.50;52.60
74666;DHT22;71408;50.106;8.694;2023-09-19T00:57:45;26.50;52.60
74666;DHT22;71408;50.106;8.694;2023-09-19T01:00:11;26.50;52.60
74666;DHT22;71408;50.106;8.694;2023-09-19T01:02:41;26.40;52.60
74666;DHT22;71408;50.106;8.694;2023-09-19T01:05:08;26.50;52.60
74666;DHT22;71408;50.106;8.694;2023-09-19T01:07:33;26.50;52.60
74666;DHT22;71408;50.106;8.694;2023-09-19T01:09:59;26.50;52.60
74666;DHT22;71408;50.106;8.694;2023-09-19T01:18:19;26.50;52.60
74666;DHT22;71408;50.106;8.694;2023-09-19T01:24:05;26.50;52.60
74666;DHT22;71408;50.106;8.694;2023-09-19T01:32:19;26.50;52.60
74666;DHT22;71408;50.106;8.694;2023-09-19T01:34:50;26.50;52.60
74666;DHT22;71408;50.106;8.694;2023-09-19T01:37:18;26.50;53.20
74666;DHT22;71408;50.106;8.694;2023-09-19T01:39:52;26.50;52.70
74666;DHT22;71408;50.106;8.694;2023-09-19T01:42:41;26.50;52.60
74666;DHT22;71408;50.106;8.694;2023-09-19T01:45:18;26.50;52.60
74666;DHT22;71408;50.106;8.694;2023-09-19T01:47:48;26.50;52.60
74666;DHT22;71408;50.106;8.694;2023-09-19T01:50:20;26.40;52.60
74666;DHT22;71408;50.106;8.694;2023-09-19T01:52:49;26.40;52.60
74666;DHT22;71408;50.106;8.694;2023-09-19T01:55:17;26.40;52.70
74666;DHT22;71408;50.106;8.694;2023-09-19T02:00:29;26.40;52.70
74666;DHT22;71408;50.106;8.694;2023-09-19T02:02:56;26.40;52.60
74666;DHT22;71408;50.106;8.694;2023-09-19T02:05:24;26.40;52.60
74666;DHT22;71408;50.106;8.694;2023-09-19T02:07:50;26.40;52.60
74666;DHT22;71408;50.106;8.694;2023-09-19T02:10:15;26.40;52.60
74666;DHT22;71408;50.106;8.694;2023-09-19T02:12:42;26.40;52.70
74666;DHT22;71408;50.106;8.694;2023-09-19T02:15:08;26.40;52.70
74666;DHT22;71408;50.106;8.694;2023-09-19T02:17:34;26.40;52.70
74666;DHT22;71408;50.106;8.694;2023-09-19T02:19:59;26.40;52.70
74666;DHT22;71408;50.106;8.694;2023-09-19T02:22:26;26.40;52.70
74666;DHT22;71408;50.106;8.694;2023-09-19T02:24:52;26.40;52.70
74666;DHT22;71408;50.106;8.694;2023-09-19T02:27:19;26.40;52.70
74666;DHT22;71408;50.106;8.694;2023-09-19T02:29:44;26.40;52.70
74666;DHT22;71408;50.106;8.694;2023-09-19T02:32:10;26.40;52.70
74666;DHT22;71408;50.106;8.694;2023-09-19T02:34:36;26.40;52.70
74666;DHT22;71408;50.106;8.694;2023-09-19T02:37:07;26.40;52.70
74666;DHT22;71408;50.106;8.694;2023-09-19T02:39:34;26.40;52.70
74666;DHT22;71408;50.106;8.694;2023-09-19T02:42:00;26.40;52.70
74666;DHT22;71408;50.106;8.694;2023-09-19T02:44:25;26.40;52.70
74666;DHT22;71408;50.106;8.694;2023-09-19T02:46:52;26.40;52.70
74666;DHT22;71408;50.106;8.694;2023-09-19T02:49:17;26.30;52.70
74666;DHT22;71408;50.106;8.694;2023-09-19T02:51:45;26.40;52.70
74666;DHT22;71408;50.106;8.694;2023-09-19T02:54:12;26.30;52.70
74666;DHT22;71408;50.106;8.694;2023-09-19T02:56:38;26.40;52.80
74666;DHT22;71408;50.106;8.694;2023-09-19T02:59:04;26.30;52.70
74666;DHT22;71408;50.106;8.694;2023-09-19T03:01:30;26.40;52.70
74666;DHT22;71408;50.106;8.694;2023-09-19T03:03:56;26.30;52.70
74666;DHT22;71408;50.106;8.694;2023-09-19T03:06:21;26.30;52.70
74666;DHT22;71408;50.106;8.694;2023-09-19T03:08:49;26.30;52.70
74666;DHT22;71408;50.106;8.694;2023-09-19T03:11:16;26.30;52.70
74666;DHT22;71408;50.106;8.694;2023-09-19T03:13:44;26.30;52.70
74666;DHT22;71408;50.106;8.694;2023-09-19T03:16:11;26.30;52.70
74666;DHT22;71408;50.106;8.694;2023-09-19T03:18:36;26.30;52.70
74666;DHT22;71408;50.106;8.694;2023-09-19T03:21:02;26.30;52.70
74666;DHT22;71408;50.106;8.694;2023-09-19T03:23:28;26.30;52.70
74666;DHT22;71408;50.106;8.694;2023-09-19T03:25:54;26.30;52.70
74666;DHT22;71408;50.106;8.694;2023-09-19T03:28:20;26.30;52.70
74666;DHT22;71408;50.106;8.694;2023-09-19T03:30:46;26.30;52.70
74666;DHT22;71408;50.106;8.694;2023-09-19T03:33:12;26.30;52.70
74666;DHT22;71408;50.106;8.694;2023-09-19T03:35:38;26.30;52.70
74666;DHT22;71408;50.106;8.694;2023-09-19T03:38:05;26.30;52.80
74666;DHT22;71408;50.106;8.694;2023-09-19T03:40:30;26.30;52.80
74666;DHT22;71408;50.106;8.694;2023-09-19T03:42:56;26.30;52.80
74666;DHT22;71408;50.106;8.694;2023-09-19T03:45:21;26.30;52.80
74666;DHT22;71408;50.106;8.694;2023-09-19T03:47:47;26.30;53.40
74666;DHT22;71408;50.106;8.694;2023-09-19T03:50:13;26.30;52.80
74666;DHT22;71408;50.106;8.694;2023-09-19T03:52:45;26.30;52.70
74666;DHT22;71408;50.106;8.694;2023-09-19T03:55:10;26.30;52.80
74666;DHT22;71408;50.106;8.694;2023-09-19T03:57:36;26.20;52.70
74666;DHT22;71408;50.106;8.694;2023-09-19T04:00:02;26.30;52.80
74666;DHT22;71408;50.106;8.694;2023-09-19T04:02:30;26.30;52.80
74666;DHT22;71408;50.106;8.694;2023-09-19T04:04:58;26.30;52.80
74666;DHT22;71408;50.106;8.694;2023-09-19T04:07:24;26.30;52.70
74666;DHT22;71408;50.106;8.694;2023-09-19T04:09:51;26.30;52.70
74666;DHT22;71408;50.106;8.694;2023-09-19T04:12:18;26.30;52.80
74666;DHT22;71408;50.106;8.694;2023-09-19T04:14:44;26.20;52.80
74666;DHT22;71408;50.106;8.694;2023-09-19T04:17:09;26.20;52.80
74666;DHT22;71408;50.106;8.694;2023-09-19T04:19:36;26.20;52.70
74666;DHT22;71408;50.106;8.694;2023-09-19T04:22:01;26.30;52.80
74666;DHT22;71408;50.106;8.694;2023-09-19T04:24:28;26.20;52.70
74666;DHT22;71408;50.106;8.694;2023-09-19T04:26:53;26.20;52.70
74666;DHT22;71408;50.106;8.694;2023-09-19T04:29:19;26.20;52.70
74666;DHT22;71408;50.106;8.694;2023-09-19T04:31:45;26.20;52.70
74666;DHT22;71408;50.106;8.694;2023-09-19T04:34:11;26.20;52.70
74666;DHT22;71408;50.106;8.694;2023-09-19T04:36:43;26.20;52.70
74666;DHT22;71408;50.106;8.694;2023-09-19T04:39:08;26.20;52.70
74666;DHT22;71408;50.106;8.694;2023-09-19T04:41:36;26.20;52.70
74666;DHT22;71408;50.106;8.694;2023-09-19T04:44:04;26.20;52.60
74666;DHT22;71408;50.106;8.694;2023-09-19T04:46:30;26.20;52.70
74666;DHT22;71408;50.106;8.694;2023-09-19T04:48:55;26.20;52.70
74666;DHT22;71408;50.106;8.694;2023-09-19T04:51:21;26.20;52.70
74666;DHT22;71408;50.106;8.694;2023-09-19T04:53:46;26.20;52.70
74666;DHT22;71408;50.106;8.694;2023-09-19T04:56:13;26.20;52.70
74666;DHT22;71408;50.106;8.694;2023-09-19T04:58:38;26.20;52.70
74666;DHT22;71408;50.106;8.694;2023-09-19T05:01:04;26.20;52.60
74666;DHT22;71408;50.106;8.694;2023-09-19T05:03:29;26.20;52.60
74666;DHT22;71408;50.106;8.694;2023-09-19T05:05:55;26.20;52.60
74666;DHT22;71408;50.106;8.694;2023-09-19T05:08:20;26.20;52.60
74666;DHT22;71408;50.106;8.694;2023-09-19T05:10:47;26.20;52.60
74666;DHT22;71408;50.106;8.694;2023-09-19T05:13:14;26.20;52.60
74666;DHT22;71408;50.106;8.694;2023-09-19T05:15:39;26.20;52.60
74666;DHT22;71408;50.106;8.694;2023-09-19T05:18:05;26.20;52.70
74666;DHT22;71408;50.106;8.694;2023-09-19T05:20:31;26.20;52.60
74666;DHT22;71408;50.106;8.694;2023-09-19T05:23:03;26.20;52.60
74666;DHT22;71408;50.106;8.694;2023-09-19T05:25:31;26.20;52.60
74666;DHT22;71408;50.106;8.694;2023-09-19T05:27:57;26.20;52.60
74666;DHT22;71408;50.106;8.694;2023-09-19T05:30:23;26.20;52.60
74666;DHT22;71408;50.106;8.694;2023-09-19T05:32:49;26.20;52.60
74666;DHT22;71408;50.106;8.694;2023-09-19T05:35:14;26.10;52.50
74666;DHT22;71408;50.106;8.694;2023-09-19T05:37:39;26.10;52.50
74666;DHT22;71408;50.106;8.694;2023-09-19T05:40:05;26.10;52.60
74666;DHT22;71408;50.106;8.694;2023-09-19T05:42:37;26.10;52.50
74666;DHT22;71408;50.106;8.694;2023-09-19T05:45:04;26.10;52.60
74666;DHT22;71408;50.106;8.694;2023-09-19T05:47:31;26.10;52.50
74666;DHT22;71408;50.106;8.694;2023-09-19T05:49:57;26.10;52.40
74666;DHT22;71408;50.106;8.694;2023-09-19T05:52:23;26.10;52.20
74666;DHT22;71408;50.106;8.694;2023-09-19T05:54:48;26.10;52.10
74666;DHT22;71408;50.106;8.694;2023-09-19T05:57:14;26.10;52.10
74666;DHT22;71408;50.106;8.694;2023-09-19T05:59:40;26.10;52.10
74666;DHT22;71408;50.106;8.694;2023-09-19T06:02:08;26.20;52.00
74666;DHT22;71408;50.106;8.694;2023-09-19T06:04:35;26.10;52.50
74666;DHT22;71408;50.106;8.694;2023-09-19T06:07:00;26.10;51.90
74666;DHT22;71408;50.106;8.694;2023-09-19T06:09:26;26.10;51.80
74666;DHT22;71408;50.106;8.694;2023-09-19T06:11:53;26.10;51.80
74666;DHT22;71408;50.106;8.694;2023-09-19T06:14:18;26.10;51.90
74666;DHT22;71408;50.106;8.694;2023-09-19T06:16:44;26.10;51.80
74666;DHT22;71408;50.106;8.694;2023-09-19T06:19:10;26.10;51.80
74666;DHT22;71408;50.106;8.694;2023-09-19T06:21:36;26.10;51.80
74666;DHT22;71408;50.106;8.694;2023-09-19T06:24:02;26.10;51.80
74666;DHT22;71408;50.106;8.694;2023-09-19T06:26:28;26.10;51.70
74666;DHT22;71408;50.106;8.694;2023-09-19T06:28:54;26.10;51.70
74666;DHT22;71408;50.106;8.694;2023-09-19T06:31:21;26.10;51.70
74666;DHT22;71408;50.106;8.694;2023-09-19T06:33:48;26.10;51.50
74666;DHT22;71408;50.106;8.694;2023-09-19T06:36:13;26.10;51.50
74666;DHT22;71408;50.106;8.694;2023-09-19T06:38:40;26.10;51.50
74666;DHT22;71408;50.106;8.694;2023-09-19T06:41:06;26.10;51.50
74666;DHT22;71408;50.106;8.694;2023-09-19T06:43:34;26.10;51.30
74666;DHT22;71408;50.106;8.694;2023-09-19T06:46:02;26.10;51.30
74666;DHT22;71408;50.106;8.694;2023-09-19T06:48:28;26.10;51.20
74666;DHT22;71408;50.106;8.694;2023-09-19T06:50:55;26.10;51.20
74666;DHT22;71408;50.106;8.694;2023-09-19T06:53:21;26.10;51.10
74666;DHT22;71408;50.106;8.694;2023-09-19T06:55:49;26.10;51.00
74666;DHT22;71408;50.106;8.694;2023-09-19T06:58:15;26.10;50.90
74666;DHT22;71408;50.106;8.694;2023-09-19T07:00:42;26.10;51.00
74666;DHT22;71408;50.106;8.694;2023-09-19T07:03:08;26.10;50.80
74666;DHT22;71408;50.106;8.694;2023-09-19T07:05:37;26.10;50.90
74666;DHT22;71408;50.106;8.694;2023-09-19T07:08:03;26.10;51.00
74666;DHT22;71408;50.106;8.694;2023-09-19T07:10:28;26.10;50.90
74666;DHT22;71408;50.106;8.694;2023-09-19T07:12:55;26.10;50.90
74666;DHT22;71408;50.106;8.694;2023-09-19T07:15:21;26.10;51.00
74666;DHT22;71408;50.106;8.694;2023-09-19T07:17:48;26.10;51.00
74666;DHT22;71408;50.106;8.694;2023-09-19T07:20:13;26.10;51.00
74666;DHT22;71408;50.106;8.694;2023-09-19T07:22:41;26.10;51.00
74666;DHT22;71408;50.106;8.694;2023-09-19T07:25:07;26.10;51.00
74666;DHT22;71408;50.106;8.694;2023-09-19T07:27:32;26.10;51.00
74666;DHT22;71408;50.106;8.694;2023-09-19T07:29:58;26.10;51.00
74666;DHT22;71408;50.106;8.694;2023-09-19T07:32:24;26.10;50.90
74666;DHT22;71408;50.106;8.694;2023-09-19T07:34:49;26.00;50.20
74666;DHT22;71408;50.106;8.694;2023-09-19T07:37:15;25.90;50.20
74666;DHT22;71408;50.106;8.694;2023-09-19T07:39:41;25.80;50.30
74666;DHT22;71408;50.106;8.694;2023-09-19T07:42:07;25.80;50.20
74666;DHT22;71408;50.106;8.694;2023-09-19T07:44:34;25.70;50.10
74666;DHT22;71408;50.106;8.694;2023-09-19T07:47:00;25.70;50.10
74666;DHT22;71408;50.106;8.694;2023-09-19T07:49:26;25.70;50.10
74666;DHT22;71408;50.106;8.694;2023-09-19T07:51:51;25.70;50.20
74666;DHT22;71408;50.106;8.694;2023-09-19T07:54:20;25.70;49.90
74666;DHT22;71408;50.106;8.694;2023-09-19T07:56:46;25.60;50.00
74666;DHT22;71408;50.106;8.694;2023-09-19T07:59:11;25.50;49.90
74666;DHT22;71408;50.106;8.694;2023-09-19T08:01:37;25.40;49.70
74666;DHT22;71408;50.106;8.694;2023-09-19T08:04:05;25.40;49.70
74666;DHT22;71408;50.106;8.694;2023-09-19T08:06:30;25.40;49.60
74666;DHT22;71408;50.106;8.694;2023-09-19T08:08:56;25.40;50.30
74666;DHT22;71408;50.106;8.694;2023-09-19T08:11:22;25.40;49.60
74666;DHT22;71408;50.106;8.694;2023-09-19T08:13:49;25.30;49.40
74666;DHT22;71408;50.106;8.694;2023-09-19T08:16:15;25.30;49.20
74666;DHT22;71408;50.106;8.694;2023-09-19T08:18:41;25.30;49.20
74666;DHT22;71408;50.106;8.694;2023-09-19T08:21:07;25.20;49.10
74666;DHT22;71408;50.106;8.694;2023-09-19T08:23:36;25.30;48.90
74666;DHT22;71408;50.106;8.694;2023-09-19T08:26:01;25.30;48.70
74666;DHT22;71408;50.106;8.694;2023-09-19T08:28:33;25.30;48.80
74666;DHT22;71408;50.106;8.694;2023-09-19T08:31:05;25.20;48.70
74666;DHT22;71408;50.106;8.694;2023-09-19T08:33:37;25.30;48.70
74666;DHT22;71408;50.106;8.694;2023-09-19T08:36:03;25.30;48.60
74666;DHT22;71408;50.106;8.694;2023-09-19T08:38:31;25.40;48.40
74666;DHT22;71408;50.106;8.694;2023-09-19T08:41:04;25.40;48.20
74666;DHT22;71408;50.106;8.694;2023-09-19T08:43:30;25.40;48.00
74666;DHT22;71408;50.106;8.694;2023-09-19T08:48:30;25.30;47.80
74666;DHT22;71408;50.106;8.694;2023-09-19T08:50:59;25.30;47.60
74666;DHT22;71408;50.106;8.694;2023-09-19T08:54:11;25.30;47.60
74666;DHT22;71408;50.106;8.694;2023-09-19T08:56:17;25.20;47.20
74666;DHT22;71408;50.106;8.694;2023-09-19T08:58:44;25.20;47.00
74666;DHT22;71408;50.106;8.694;2023-09-19T09:01:10;25.20;46.80
74666;DHT22;71408;50.106;8.694;2023-09-19T09:03:37;25.20;46.60
74666;DHT22;71408;50.106;8.694;2023-09-19T09:06:07;25.30;46.40
74666;DHT22;71408;50.106;8.694;2023-09-19T09:08:32;25.20;46.20
74666;DHT22;71408;50.106;8.694;2023-09-19T09:10:58;25.30;46.00
74666;DHT22;71408;50.106;8.694;2023-09-19T09:13:24;25.30;45.80
74666;DHT22;71408;50.106;8.694;2023-09-19T09:15:51;25.30;45.60
74666;DHT22;71408;50.106;8.694;2023-09-19T09:18:17;25.30;45.60
74666;DHT22;71408;50.106;8.694;2023-09-19T09:20:43;25.30;45.30
74666;DHT22;71408;50.106;8.694;2023-09-19T09:23:10;25.30;45.30
74666;DHT22;71408;50.106;8.694;2023-09-19T09:25:51;25.30;45.30
74666;DHT22;71408;50.106;8.694;2023-09-19T09:28:26;25.30;45.10
74666;DHT22;71408;50.106;8.694;2023-09-19T09:30:53;25.30;45.00
74666;DHT22;71408;50.106;8.694;2023-09-19T09:33:19;25.30;44.90
74666;DHT22;71408;50.106;8.694;2023-09-19T09:35:48;25.20;44.90
74666;DHT22;71408;50.106;8.694;2023-09-19T09:38:20;25.30;44.50
74666;DHT22;71408;50.106;8.694;2023-09-19T09:40:47;25.20;44.40
74666;DHT22;71408;50.106;8.694;2023-09-19T09:46:12;25.30;44.50
74666;DHT22;71408;50.106;8.694;2023-09-19T09:49:06;25.30;44.10
74666;DHT22;71408;50.106;8.694;2023-09-19T09:51:45;25.30;44.00
74666;DHT22;71408;50.106;8.694;2023-09-19T09:54:17;25.20;44.10
74666;DHT22;71408;50.106;8.694;2023-09-19T09:57:03;25.20;44.00
74666;DHT22;71408;50.106;8.694;2023-09-19T09:59:53;25.20;43.90
74666;DHT22;71408;50.106;8.694;2023-09-19T10:02:28;25.30;44.70
74666;DHT22;71408;50.106;8.694;2023-09-19T10:04:55;25.30;44.10
74666;DHT22;71408;50.106;8.694;2023-09-19T10:07:40;25.40;43.80
74666;DHT22;71408;50.106;8.694;2023-09-19T10:13:28;25.40;43.50
74666;DHT22;71408;50.106;8.694;2023-09-19T10:15:56;25.40;43.30
74666;DHT22;71408;50.106;8.694;2023-09-19T10:18:24;25.40;43.30
74666;DHT22;71408;50.106;8.694;2023-09-19T10:20:50;25.40;43.00
74666;DHT22;71408;50.106;8.694;2023-09-19T10:23:19;25.40;43.10
74666;DHT22;71408;50.106;8.694;2023-09-19T10:25:52;25.40;42.80
74666;DHT22;71408;50.106;8.694;2023-09-19T10:28:18;25.40;42.90
74666;DHT22;71408;50.106;8.694;2023-09-19T10:30:47;25.50;43.00
74666;DHT22;71408;50.106;8.694;2023-09-19T10:33:15;25.50;42.80
74666;DHT22;71408;50.106;8.694;2023-09-19T10:35:44;25.50;42.80
74666;DHT22;71408;50.106;8.694;2023-09-19T10:38:10;25.50;42.90
74666;DHT22;71408;50.106;8.694;2023-09-19T10:40:36;25.60;42.80
74666;DHT22;71408;50.106;8.694;2023-09-19T10:43:05;25.60;42.80
74666;DHT22;71408;50.106;8.694;2023-09-19T10:45:32;25.60;43.30
74666;DHT22;71408;50.106;8.694;2023-09-19T10:47:58;25.70;42.60
74666;DHT22;71408;50.106;8.694;2023-09-19T10:50:24;25.60;42.30
74666;DHT22;71408;50.106;8.694;2023-09-19T10:52:49;25.60;42.10
74666;DHT22;71408;50.106;8.694;2023-09-19T10:55:17;25.60;41.80
74666;DHT22;71408;50.106;8.694;2023-09-19T10:57:46;25.50;41.40
74666;DHT22;71408;50.106;8.694;2023-09-19T11:00:12;25.50;41.30
74666;DHT22;71408;50.106;8.694;2023-09-19T11:05:39;25.50;42.40
74666;DHT22;71408;50.106;8.694;2023-09-19T11:08:06;25.60;43.50
74666;DHT22;71408;50.106;8.694;2023-09-19T11:10:45;25.70;43.00
74666;DHT22;71408;50.106;8.694;2023-09-19T11:13:28;25.50;41.00
74666;DHT22;71408;50.106;8.694;2023-09-19T11:16:03;25.10;40.90
74666;DHT22;71408;50.106;8.694;2023-09-19T11:27:12;24.50;41.50
74666;DHT22;71408;50.106;8.694;2023-09-19T11:29:43;24.40;41.50
74666;DHT22;71408;50.106;8.694;2023-09-19T11:32:08;24.40;41.90
74666;DHT22;71408;50.106;8.694;2023-09-19T11:34:41;24.20;41.60
74666;DHT22;71408;50.106;8.694;2023-09-19T11:40:05;24.10;41.80
74666;DHT22;71408;50.106;8.694;2023-09-19T11:42:47;24.10;42.00
74666;DHT22;71408;50.106;8.694;2023-09-19T11:47:59;24.10;41.60
74666;DHT22;71408;50.106;8.694;2023-09-19T11:50:26;24.20;41.80
74666;DHT22;71408;50.106;8.694;2023-09-19T11:52:53;24.30;41.40
74666;DHT22;71408;50.106;8.694;2023-09-19T11:55:20;24.40;41.30
74666;DHT22;71408;50.106;8.694;2023-09-19T11:57:48;24.50;41.40
74666;DHT22;71408;50.106;8.694;2023-09-19T12:00:18;24.60;41.20
74666;DHT22;71408;50.106;8.694;2023-09-19T12:02:46;24.60;40.90
74666;DHT22;71408;50.106;8.694;2023-09-19T12:05:12;24.70;41.10
74666;DHT22;71408;50.106;8.694;2023-09-19T12:07:44;24.70;40.70
74666;DHT22;71408;50.106;8.694;2023-09-19T12:10:13;24.80;40.90
74666;DHT22;71408;50.106;8.694;2023-09-19T12:12:46;24.80;40.30
74666;DHT22;71408;50.106;8.694;2023-09-19T12:15:12;24.80;40.40
74666;DHT22;71408;50.106;8.694;2023-09-19T12:17:38;24.80;41.10
74666;DHT22;71408;50.106;8.694;2023-09-19T12:20:04;24.80;40.60
74666;DHT22;71408;50.106;8.694;2023-09-19T12:22:44;24.70;40.50
74666;DHT22;71408;50.106;8.694;2023-09-19T12:25:11;24.80;41.20
74666;DHT22;71408;50.106;8.694;2023-09-19T12:27:49;24.80;40.50
74666;DHT22;71408;50.106;8.694;2023-09-19T12:30:18;24.80;40.50
74666;DHT22;71408;50.106;8.694;2023-09-19T12:32:44;24.90;40.20
74666;DHT22;71408;50.106;8.694;2023-09-19T12:35:26;24.90;39.90
74666;DHT22;71408;50.106;8.694;2023-09-19T12:37:53;25.00;39.50
74666;DHT22;71408;50.106;8.694;2023-09-19T12:40:20;25.00;40.00
74666;DHT22;71408;50.106;8.694;2023-09-19T12:42:53;25.00;39.40
74666;DHT22;71408;50.106;8.694;2023-09-19T12:45:20;25.10;39.70
74666;DHT22;71408;50.106;8.694;2023-09-19T12:50:33;25.20;39.90
74666;DHT22;71408;50.106;8.694;2023-09-19T12:52:58;25.20;39.60
74666;DHT22;71408;50.106;8.694;2023-09-19T13:00:37;25.30;38.80
74666;DHT22;71408;50.106;8.694;2023-09-19T13:03:12;25.30;39.10
74666;DHT22;71408;50.106;8.694;2023-09-19T13:05:56;25.30;39.40
74666;DHT22;71408;50.106;8.694;2023-09-19T13:08:23;25.30;38.50
74666;DHT22;71408;50.106;8.694;2023-09-19T13:14:29;25.20;38.50
74666;DHT22;71408;50.106;8.694;2023-09-19T13:16:52;25.20;38.30
74666;DHT22;71408;50.106;8.694;2023-09-19T13:19:38;25.20;38.50
74666;DHT22;71408;50.106;8.694;2023-09-19T13:22:05;25.10;38.00
74666;DHT22;71408;50.106;8.694;2023-09-19T13:24:50;25.30;38.20
74666;DHT22;71408;50.106;8.694;2023-09-19T13:27:16;25.20;38.30
74666;DHT22;71408;50.106;8.694;2023-09-19T13:29:42;25.20;37.70
74666;DHT22;71408;50.106;8.694;2023-09-19T13:32:07;25.20;37.60
74666;DHT22;71408;50.106;8.694;2023-09-19T13:34:36;25.10;37.60
74666;DHT22;71408;50.106;8.694;2023-09-19T13:37:03;25.10;38.60
74666;DHT22;71408;50.106;8.694;2023-09-19T13:39:29;25.20;38.20
74666;DHT22;71408;50.106;8.694;2023-09-19T13:41:55;25.30;38.00
74666;DHT22;71408;50.106;8.694;2023-09-19T13:44:21;25.30;37.80
74666;DHT22;71408;50.106;8.694;2023-09-19T13:46:46;25.20;38.10
74666;DHT22;71408;50.106;8.694;2023-09-19T13:49:12;25.30;38.20
74666;DHT22;71408;50.106;8.694;2023-09-19T13:51:37;25.20;38.20
74666;DHT22;71408;50.106;8.694;2023-09-19T13:54:03;25.20;38.60
74666;DHT22;71408;50.106;8.694;2023-09-19T13:56:28;25.20;39.10
74666;DHT22;71408;50.106;8.694;2023-09-19T13:58:55;25.20;38.70
74666;DHT22;71408;50.106;8.694;2023-09-19T14:01:20;25.30;38.40
74666;DHT22;71408;50.106;8.694;2023-09-19T14:03:46;25.20;38.60
74666;DHT22;71408;50.106;8.694;2023-09-19T14:06:12;25.20;38.70
74666;DHT22;71408;50.106;8.694;2023-09-19T14:08:38;25.20;38.70
74666;DHT22;71408;50.106;8.694;2023-09-19T14:11:07;25.20;38.80
74666;DHT22;71408;50.106;8.694;2023-09-19T14:13:32;25.20;38.90
74666;DHT22;71408;50.106;8.694;2023-09-19T14:16:02;25.20;38.40
74666;DHT22;71408;50.106;8.694;2023-09-19T14:18:29;25.20;38.60
74666;DHT22;71408;50.106;8.694;2023-09-19T14:20:55;25.30;39.30
74666;DHT22;71408;50.106;8.694;2023-09-19T14:23:20;25.50;39.80
74666;DHT22;71408;50.106;8.694;2023-09-19T14:25:45;25.60;39.90
74666;DHT22;71408;50.106;8.694;2023-09-19T14:28:11;25.70;39.80
74666;DHT22;71408;50.106;8.694;2023-09-19T14:30:36;25.80;39.50
74666;DHT22;71408;50.106;8.694;2023-09-19T14:33:02;25.90;39.20
74666;DHT22;71408;50.106;8.694;2023-09-19T14:35:28;25.90;39.40
74666;DHT22;71408;50.106;8.694;2023-09-19T14:37:53;26.00;39.50
74666;DHT22;71408;50.106;8.694;2023-09-19T14:40:19;26.00;39.80
74666;DHT22;71408;50.106;8.694;2023-09-19T14:42:45;26.00;39.90
74666;DHT22;71408;50.106;8.694;2023-09-19T14:45:10;26.10;39.90
74666;DHT22;71408;50.106;8.694;2023-09-19T14:47:37;26.10;40.00
74666;DHT22;71408;50.106;8.694;2023-09-19T14:50:02;26.10;40.00
74666;DHT22;71408;50.106;8.694;2023-09-19T14:52:32;26.10;40.00
74666;DHT22;71408;50.106;8.694;2023-09-19T14:54:57;26.10;40.20
74666;DHT22;71408;50.106;8.694;2023-09-19T14:57:23;26.10;40.30
74666;DHT22;71408;50.106;8.694;2023-09-19T14:59:49;26.10;40.30
74666;DHT22;71408;50.106;8.694;2023-09-19T15:02:16;26.10;40.40
74666;DHT22;71408;50.106;8.694;2023-09-19T15:04:42;26.10;40.40
74666;DHT22;71408;50.106;8.694;2023-09-19T15:07:12;26.10;40.50
74666;DHT22;71408;50.106;8.694;2023-09-19T15:09:40;26.20;40.60
74666;DHT22;71408;50.106;8.694;2023-09-19T15:12:06;26.20;40.70
74666;DHT22;71408;50.106;8.694;2023-09-19T15:14:31;26.20;40.70
74666;DHT22;71408;50.106;8.694;2023-09-19T15:16:57;26.20;40.70
74666;DHT22;71408;50.106;8.694;2023-09-19T15:19:22;26.20;40.70
74666;DHT22;71408;50.106;8.694;2023-09-19T15:21:48;26.20;40.80
74666;DHT22;71408;50.106;8.694;2023-09-19T15:24:13;26.10;40.70
74666;DHT22;71408;50.106;8.694;2023-09-19T15:26:40;26.20;40.80
74666;DHT22;71408;50.106;8.694;2023-09-19T15:29:06;26.20;40.90
74666;DHT22;71408;50.106;8.694;2023-09-19T15:31:31;26.20;40.80
74666;DHT22;71408;50.106;8.694;2023-09-19T15:33:57;26.20;40.90
74666;DHT22;71408;50.106;8.694;2023-09-19T15:36:22;26.20;40.90
74666;DHT22;71408;50.106;8.694;2023-09-19T15:39:04;26.20;40.90
74666;DHT22;71408;50.106;8.694;2023-09-19T15:41:32;26.20;41.00
74666;DHT22;71408;50.106;8.694;2023-09-19T15:43:58;26.20;41.00
74666;DHT22;71408;50.106;8.694;2023-09-19T15:46:27;26.20;41.10
74666;DHT22;71408;50.106;8.694;2023-09-19T15:48:55;26.20;41.10
74666;DHT22;71408;50.106;8.694;2023-09-19T15:51:22;26.20;41.00
74666;DHT22;71408;50.106;8.694;2023-09-19T15:53:48;26.20;41.10
74666;DHT22;71408;50.106;8.694;2023-09-19T15:56:15;26.20;41.10
74666;DHT22;71408;50.106;8.694;2023-09-19T15:58:44;26.20;41.10
74666;DHT22;71408;50.106;8.694;2023-09-19T16:01:10;26.30;41.20
74666;DHT22;71408;50.106;8.694;2023-09-19T16:03:36;26.20;41.20
74666;DHT22;71408;50.106;8.694;2023-09-19T16:06:07;26.20;41.20
74666;DHT22;71408;50.106;8.694;2023-09-19T16:08:33;26.20;41.20
74666;DHT22;71408;50.106;8.694;2023-09-19T16:11:00;26.20;41.20
74666;DHT22;71408;50.106;8.694;2023-09-19T16:13:25;26.20;41.30
74666;DHT22;71408;50.106;8.694;2023-09-19T16:15:52;26.20;41.30
74666;DHT22;71408;50.106;8.694;2023-09-19T16:18:17;26.20;41.30
74666;DHT22;71408;50.106;8.694;2023-09-19T16:20:43;26.20;41.40
74666;DHT22;71408;50.106;8.694;2023-09-19T16:23:08;26.20;41.40
74666;DHT22;71408;50.106;8.694;2023-09-19T16:25:34;26.20;41.40
74666;DHT22;71408;50.106;8.694;2023-09-19T16:27:59;26.20;41.40